Time;durP1;ratioP1;P1;durP2;ratioP2;P2;SDS_P1;SDS_P2;PMS_P1;PMS_P2;Temp;Humidity;BMP_temperature;BMP_pressure;BME280_temperature;BME280_humidity;BME280_pressure;Samples;Min_cycle;Max_cycle;Signal;HPM_P1;HPM_P2
2023/04/24 04:12:49;;;;;;;2.50;1.83;;;14.40;79.60;;;;;;6084714;23;20380;-45
2023/04/24 04:15:19;;;;;;;3.27;2.40;;;14.40;80.00;;;;;;6085848;23;20511;-45
2023/04/24 04:17:48;;;;;;;2.83;2.13;;;14.40;79.40;;;;;;6087706;23;20400;-45
2023/04/24 04:20:16;;;;;;;2.83;2.43;;;14.40;79.80;;;;;;6085466;23;20439;-46
2023/04/24 04:22:45;;;;;;;3.00;2.30;;;14.40;79.70;;;;;;6087745;23;20397;-45
2023/04/24 04:25:19;;;;;;;3.30;2.60;;;14.40;78.70;;;;;;6086019;23;20436;-45
2023/04/24 04:27:50;;;;;;;2.87;2.20;;;14.40;78.90;;;;;;6086436;23;20716;-45
2023/04/24 04:30:21;;;;;;;4.67;2.20;;;14.40;79.00;;;;;;6086144;23;20476;-45
2023/04/24 04:32:58;;;;;;;3.97;2.80;;;14.30;79.20;;;;;;6086782;23;20434;-45
2023/04/24 04:35:27;;;;;;;2.77;2.23;;;14.40;79.00;;;;;;6084677;23;20984;-45
2023/04/24 04:37:58;;;;;;;2.40;1.73;;;14.30;79.80;;;;;;6086886;23;20399;-44
2023/04/24 04:40:44;;;;;;;2.40;2.00;;;14.30;79.50;;;;;;6085604;23;20423;-46
2023/04/24 04:43:15;;;;;;;2.50;2.20;;;14.30;80.00;;;;;;6086386;23;20483;-45
2023/04/24 04:45:52;;;;;;;3.90;2.40;;;14.30;79.70;;;;;;6086139;23;20464;-46
2023/04/24 04:48:45;;;;;;;3.80;2.30;;;14.30;79.60;;;;;;6089243;23;20806;-45
2023/04/24 04:51:16;;;;;;;2.90;2.17;;;14.30;79.40;;;;;;6086135;23;20999;-45
2023/04/24 04:53:46;;;;;;;2.93;2.40;;;14.30;80.00;;;;;;6086918;23;20479;-45
2023/04/24 04:56:15;;;;;;;2.77;2.17;;;14.30;79.60;;;;;;6087543;23;20494;-46
2023/04/24 04:58:49;;;;;;;3.10;2.63;;;14.30;79.50;;;;;;6087032;23;20430;-46
2023/04/24 05:01:21;;;;;;;3.20;2.70;;;14.30;79.90;;;;;;6086692;23;20380;-45
2023/04/24 05:03:50;;;;;;;2.83;2.37;;;14.30;79.80;;;;;;6063251;23;20408;-46
2023/04/24 05:06:20;;;;;;;2.60;2.23;;;14.30;80.00;;;;;;6087236;23;20942;-45
2023/04/24 05:08:55;;;;;;;3.73;2.50;;;14.30;80.20;;;;;;6087059;23;20780;-46
2023/04/24 05:11:34;;;;;;;2.63;2.00;;;14.30;79.70;;;;;;6086561;23;20792;-45
2023/04/24 05:14:05;;;;;;;2.70;2.00;;;14.30;80.00;;;;;;6087039;23;20423;-45
2023/04/24 05:16:40;;;;;;;3.43;2.47;;;14.30;79.80;;;;;;6087789;23;20730;-45
2023/04/24 05:19:11;;;;;;;4.40;2.57;;;14.30;79.90;;;;;;6087733;23;20788;-45
2023/04/24 05:21:45;;;;;;;2.63;1.60;;;14.30;79.90;;;;;;6086657;23;20684;-46
2023/04/24 05:24:15;;;;;;;5.07;2.43;;;14.30;80.10;;;;;;6086625;23;20376;-45
2023/04/24 05:27:13;;;;;;;3.27;2.40;;;14.30;80.10;;;;;;6099531;23;20411;-46
2023/04/24 05:29:43;;;;;;;3.77;2.40;;;14.20;80.00;;;;;;6061745;23;20498;-45
2023/04/24 05:32:14;;;;;;;2.43;2.23;;;14.30;80.10;;;;;;6087003;23;20906;-45
2023/04/24 05:34:42;;;;;;;3.07;2.03;;;14.20;80.30;;;;;;6087629;23;20408;-46
2023/04/24 05:37:11;;;;;;;2.80;2.27;;;14.20;80.10;;;;;;6086791;23;20396;-46
2023/04/24 05:39:41;;;;;;;2.13;1.93;;;14.20;79.90;;;;;;6085967;23;20435;-44
2023/04/24 05:42:11;;;;;;;2.60;1.80;;;14.20;80.00;;;;;;6086961;23;20376;-43
2023/04/24 05:44:41;;;;;;;4.73;2.00;;;14.20;80.10;;;;;;6085625;23;20839;-44
2023/04/24 05:47:16;;;;;;;2.83;2.40;;;14.20;80.00;;;;;;6087599;23;20456;-42
2023/04/24 05:49:46;;;;;;;2.90;1.83;;;14.20;80.00;;;;;;6086985;23;20436;-43
2023/04/24 05:52:38;;;;;;;2.43;1.70;;;14.20;80.00;;;;;;6087191;23;20427;-45
2023/04/24 05:55:22;;;;;;;2.20;1.80;;;14.20;79.90;;;;;;6086048;23;20434;-44
2023/04/24 05:57:54;;;;;;;2.40;2.20;;;14.20;80.00;;;;;;6087536;23;20384;-43
2023/04/24 06:00:28;;;;;;;2.53;1.97;;;14.20;79.70;;;;;;6084958;23;20648;-44
2023/04/24 06:03:06;;;;;;;1.97;1.50;;;14.20;80.40;;;;;;6086877;23;20384;-44
2023/04/24 06:05:44;;;;;;;2.80;1.93;;;14.20;80.40;;;;;;6067761;23;20499;-44
2023/04/24 06:08:15;;;;;;;1.93;1.57;;;14.10;80.30;;;;;;6087773;23;20380;-44
2023/04/24 06:10:51;;;;;;;2.50;1.90;;;14.10;79.90;;;;;;6086172;23;20444;-44
2023/04/24 06:13:22;;;;;;;2.20;1.60;;;14.20;80.40;;;;;;6086769;23;20809;-44
2023/04/24 06:16:35;;;;;;;2.30;1.57;;;14.10;80.40;;;;;;6088706;23;20438;-45
2023/04/24 06:19:14;;;;;;;2.00;1.63;;;14.20;80.50;;;;;;6087068;23;20446;-44
2023/04/24 06:21:43;;;;;;;2.97;2.00;;;14.10;80.80;;;;;;6086885;23;20435;-44
2023/04/24 06:24:11;;;;;;;1.90;1.40;;;14.10;80.60;;;;;;6085713;23;20755;-44
2023/04/24 06:26:40;;;;;;;2.47;1.77;;;14.10;80.70;;;;;;6087607;23;20929;-44
2023/04/24 06:29:10;;;;;;;3.07;1.73;;;14.10;80.70;;;;;;6086200;23;20408;-45
2023/04/24 06:31:38;;;;;;;2.17;1.40;;;14.10;80.90;;;;;;6087102;23;20451;-44
2023/04/24 06:34:08;;;;;;;1.77;1.57;;;14.10;80.90;;;;;;6109881;23;20473;-44
2023/04/24 06:36:38;;;;;;;2.03;1.50;;;14.10;81.00;;;;;;6086402;23;20805;-45
2023/04/24 06:39:07;;;;;;;3.80;1.97;;;14.10;80.90;;;;;;6088568;23;20937;-43
2023/04/24 06:41:35;;;;;;;2.60;1.43;;;14.10;80.90;;;;;;6089304;23;20704;-44
2023/04/24 06:44:05;;;;;;;1.97;1.27;;;14.10;80.90;;;;;;6085717;23;20518;-44
2023/04/24 06:46:33;;;;;;;2.23;1.67;;;14.10;81.20;;;;;;6087710;23;20724;-44
2023/04/24 06:49:02;;;;;;;2.70;1.50;;;14.10;81.20;;;;;;6087594;23;20403;-43
2023/04/24 06:51:32;;;;;;;2.10;1.63;;;14.10;81.40;;;;;;6086339;23;20902;-44
2023/04/24 06:54:02;;;;;;;2.20;1.80;;;14.10;81.30;;;;;;6087115;23;20371;-44
2023/04/24 06:56:34;;;;;;;2.77;1.40;;;14.10;81.20;;;;;;6088318;23;20416;-45
2023/04/24 06:59:02;;;;;;;2.50;1.63;;;14.10;81.10;;;;;;6086265;23;20376;-44
2023/04/24 07:01:31;;;;;;;1.90;1.30;;;14.10;81.60;;;;;;6086846;23;20423;-44
2023/04/24 07:03:59;;;;;;;3.20;1.60;;;14.00;81.30;;;;;;6085329;23;20498;-44
2023/04/24 07:06:31;;;;;;;2.80;1.73;;;14.00;81.30;;;;;;6086312;23;20883;-44
2023/04/24 07:09:01;;;;;;;2.07;1.70;;;14.10;81.50;;;;;;6088342;23;20380;-44
2023/04/24 07:11:32;;;;;;;2.20;1.80;;;14.00;81.30;;;;;;6088560;23;20447;-44
2023/04/24 07:14:01;;;;;;;1.70;1.30;;;14.00;81.30;;;;;;6085658;23;20368;-44
2023/04/24 07:16:32;;;;;;;2.17;1.77;;;14.10;81.60;;;;;;6087101;23;20501;-43
2023/04/24 07:19:01;;;;;;;2.53;1.77;;;14.00;81.60;;;;;;6085751;23;20428;-44
2023/04/24 07:21:30;;;;;;;2.27;1.80;;;14.00;81.50;;;;;;6086053;23;20415;-45
2023/04/24 07:24:12;;;;;;;2.03;1.47;;;14.00;81.40;;;;;;6087186;23;20368;-45
2023/04/24 07:26:42;;;;;;;2.53;1.40;;;14.00;81.30;;;;;;6086126;23;20669;-45
2023/04/24 07:29:11;;;;;;;2.10;1.43;;;14.00;81.40;;;;;;6109125;23;20946;-45
2023/04/24 07:31:40;;;;;;;1.80;1.50;;;14.00;81.60;;;;;;6088001;23;20451;-45
2023/04/24 07:34:09;;;;;;;1.97;1.60;;;14.00;81.60;;;;;;6086516;23;20830;-44
2023/04/24 07:36:38;;;;;;;2.00;1.40;;;14.00;81.50;;;;;;6085770;23;20459;-44
2023/04/24 07:39:08;;;;;;;1.97;1.50;;;14.00;81.70;;;;;;6086458;23;20442;-43
2023/04/24 07:41:36;;;;;;;2.20;1.80;;;13.90;81.80;;;;;;6089696;23;20384;-44
2023/04/24 07:44:07;;;;;;;1.63;1.20;;;13.90;82.00;;;;;;6086939;23;20475;-45
2023/04/24 07:46:35;;;;;;;1.80;1.40;;;13.90;81.90;;;;;;6088360;23;20443;-44
2023/04/24 07:49:05;;;;;;;2.53;1.40;;;13.90;81.90;;;;;;6086582;23;20510;-45
2023/04/24 07:51:42;;;;;;;2.90;1.73;;;13.90;82.10;;;;;;6088393;23;20899;-44
2023/04/24 07:54:11;;;;;;;1.60;1.43;;;13.90;82.10;;;;;;6112008;23;20396;-43
2023/04/24 07:56:40;;;;;;;2.47;1.10;;;13.90;82.30;;;;;;6089226;23;20439;-45
2023/04/24 07:59:10;;;;;;;2.03;1.27;;;13.90;82.10;;;;;;6086556;23;20519;-44
2023/04/24 08:01:39;;;;;;;2.37;1.70;;;13.90;82.10;;;;;;6087902;23;20457;-44
2023/04/24 08:04:09;;;;;;;1.80;1.20;;;13.90;81.80;;;;;;6088037;23;20455;-45
2023/04/24 08:06:39;;;;;;;1.80;1.30;;;13.90;81.80;;;;;;6063435;23;20919;-45
2023/04/24 08:09:08;;;;;;;2.00;1.50;;;13.90;81.90;;;;;;6087161;23;20435;-44
2023/04/24 08:11:37;;;;;;;2.00;1.47;;;13.80;81.80;;;;;;6087785;23;20511;-43
2023/04/24 08:14:13;;;;;;;1.90;1.53;;;13.80;81.70;;;;;;6088178;23;20392;-44
2023/04/24 08:16:42;;;;;;;2.63;1.60;;;13.90;81.90;;;;;;6087503;23;20419;-44
2023/04/24 08:19:31;;;;;;;2.77;1.90;;;13.90;82.00;;;;;;6089346;23;20535;-44
2023/04/24 08:22:01;;;;;;;2.50;1.53;;;13.80;81.90;;;;;;6088147;23;20373;-44
2023/04/24 08:24:29;;;;;;;3.20;1.30;;;13.80;82.00;;;;;;6088243;23;20395;-43
2023/04/24 08:26:58;;;;;;;2.37;1.40;;;13.80;82.10;;;;;;6087611;23;20754;-42
2023/04/24 08:29:30;;;;;;;2.07;1.80;;;13.80;82.10;;;;;;6085919;23;20911;-42
2023/04/24 08:31:58;;;;;;;2.50;1.63;;;13.80;82.20;;;;;;6087185;23;20503;-44
2023/04/24 08:34:27;;;;;;;2.50;1.80;;;13.80;82.20;;;;;;6087843;23;20406;-43
2023/04/24 08:36:55;;;;;;;2.47;1.70;;;13.80;82.20;;;;;;6089391;23;20814;-44
2023/04/24 08:39:24;;;;;;;2.70;1.43;;;13.80;82.30;;;;;;6088995;23;20454;-44
2023/04/24 08:41:54;;;;;;;3.80;1.70;;;13.80;82.30;;;;;;6088233;23;20384;-43
2023/04/24 08:44:22;;;;;;;1.60;1.20;;;13.80;82.40;;;;;;6089225;23;20395;-45
2023/04/24 08:46:54;;;;;;;1.93;1.63;;;13.80;82.50;;;;;;6088223;23;20412;-45
2023/04/24 08:49:26;;;;;;;2.27;1.63;;;13.80;82.10;;;;;;6088909;23;20436;-44
2023/04/24 08:51:54;;;;;;;2.07;1.63;;;13.80;82.50;;;;;;6088499;23;20447;-45
2023/04/24 08:54:23;;;;;;;2.40;1.60;;;13.80;82.60;;;;;;6088380;23;20388;-45
2023/04/24 08:56:54;;;;;;;2.93;2.10;;;13.80;82.80;;;;;;6088143;23;20811;-46
2023/04/24 09:27:08;;;;;;;3.47;2.10;;;13.70;82.70;;;;;;6083632;23;20666;-45
2023/04/24 09:29:39;;;;;;;2.27;1.60;;;13.70;82.90;;;;;;6088407;23;20511;-46
2023/04/24 09:32:24;;;;;;;2.33;1.63;;;13.70;82.80;;;;;;6087728;23;20428;-45
2023/04/24 09:35:08;;;;;;;3.57;1.90;;;13.70;83.00;;;;;;6085600;23;20498;-45
2023/04/24 09:37:38;;;;;;;1.90;1.57;;;13.70;82.90;;;;;;6086745;23;20495;-46
2023/04/24 09:40:16;;;;;;;2.43;1.77;;;13.70;83.10;;;;;;6085534;23;20483;-44
2023/04/24 09:42:47;;;;;;;2.37;1.50;;;13.70;83.00;;;;;;6086851;23;20383;-45
2023/04/24 09:45:16;;;;;;;3.30;1.70;;;13.70;82.90;;;;;;6086257;23;20443;-46
2023/04/24 09:47:45;;;;;;;2.03;1.70;;;13.70;83.00;;;;;;6088136;23;20387;-45
2023/04/24 10:13:57;;;;;;;2.90;2.00;;;13.60;83.00;;;;;;6088504;23;20406;-44
2023/04/24 10:21:13;;;;;;;1.87;1.63;;;13.70;83.20;;;;;;6088565;23;20403;-45
2023/04/24 10:23:43;;;;;;;3.00;1.67;;;13.70;83.50;;;;;;6088259;23;20856;-46
2023/04/24 10:26:17;;;;;;;2.27;1.93;;;13.60;83.30;;;;;;6088187;23;20420;-46
2023/04/24 10:28:46;;;;;;;3.00;1.87;;;13.60;83.30;;;;;;6086542;23;20463;-45
2023/04/24 10:31:16;;;;;;;3.10;2.80;;;13.70;83.40;;;;;;6086323;23;20424;-46
2023/04/24 10:33:48;;;;;;;3.50;2.63;;;13.70;83.40;;;;;;6087379;23;20422;-45
2023/04/24 10:36:17;;;;;;;4.70;1.90;;;13.70;83.40;;;;;;6086862;23;20427;-45
2023/04/24 10:38:49;;;;;;;2.40;1.90;;;13.70;83.30;;;;;;6087047;23;20380;-43
2023/04/24 10:41:22;;;;;;;2.53;1.90;;;13.70;83.50;;;;;;6085746;23;20408;-45
2023/04/24 10:44:07;;;;;;;3.37;2.60;;;13.60;83.40;;;;;;6086787;23;20868;-44
2023/04/24 10:46:38;;;;;;;3.10;2.10;;;13.70;83.50;;;;;;6087463;23;20442;-43
2023/04/24 10:49:10;;;;;;;3.53;1.77;;;13.60;83.30;;;;;;6086400;23;20766;-46
2023/04/24 10:51:49;;;;;;;3.20;2.20;;;13.60;83.30;;;;;;6086846;23;20757;-45
2023/04/24 10:54:24;;;;;;;2.97;2.10;;;13.60;83.40;;;;;;6087402;23;20493;-46
2023/04/24 10:56:53;;;;;;;2.43;2.23;;;13.60;83.40;;;;;;6087301;23;20458;-46
2023/04/24 10:59:37;;;;;;;2.93;2.53;;;13.60;83.40;;;;;;6086854;23;20477;-44
2023/04/24 11:02:09;;;;;;;3.20;1.80;;;13.60;83.50;;;;;;6087221;23;20372;-46
2023/04/24 11:04:37;;;;;;;2.37;2.07;;;13.60;83.60;;;;;;6086818;23;20388;-45
2023/04/24 11:07:06;;;;;;;2.77;2.30;;;13.60;83.60;;;;;;6088159;23;20508;-46
2023/04/24 11:09:36;;;;;;;2.40;1.90;;;13.60;83.60;;;;;;6085961;23;20439;-45
2023/04/24 11:12:10;;;;;;;3.20;2.37;;;13.60;83.60;;;;;;6087632;23;20471;-43
2023/04/24 11:15:02;;;;;;;4.80;2.80;;;13.60;83.60;;;;;;6088142;23;20411;-45
2023/04/24 11:17:34;;;;;;;4.70;2.70;;;13.60;83.60;;;;;;6089882;23;20631;-44
2023/04/24 11:20:04;;;;;;;2.90;2.30;;;13.60;83.50;;;;;;6086310;23;20439;-44
2023/04/24 11:22:55;;;;;;;3.30;2.20;;;13.60;83.60;;;;;;6088515;23;20434;-45
2023/04/24 11:25:24;;;;;;;2.97;2.40;;;13.60;83.60;;;;;;6086943;23;20467;-46
2023/04/24 11:28:05;;;;;;;3.67;2.73;;;13.60;83.50;;;;;;6086902;23;20399;-46
2023/04/24 11:30:35;;;;;;;5.17;2.30;;;13.60;83.40;;;;;;6087326;23;20443;-43
2023/04/24 11:33:06;;;;;;;4.20;2.13;;;13.60;83.40;;;;;;6111864;23;20511;-43
2023/04/24 11:35:40;;;;;;;5.03;2.83;;;13.60;83.40;;;;;;6087357;23;20777;-46
2023/04/24 11:38:08;;;;;;;4.60;3.27;;;13.60;83.40;;;;;;6088060;23;20415;-46
2023/04/24 11:40:53;;;;;;;3.47;2.23;;;13.60;83.40;;;;;;6086625;23;20439;-45
2023/04/24 11:43:22;;;;;;;4.37;2.97;;;13.60;83.50;;;;;;6088109;23;20732;-45
2023/04/24 11:45:51;;;;;;;3.27;2.77;;;13.60;83.30;;;;;;6085516;23;20825;-44
2023/04/24 11:48:23;;;;;;;3.70;2.30;;;13.60;83.40;;;;;;6088045;23;20384;-44
2023/04/24 11:50:52;;;;;;;2.83;2.53;;;13.60;83.60;;;;;;6087185;23;20446;-44
2023/04/24 11:53:21;;;;;;;6.43;3.20;;;13.60;83.70;;;;;;6089661;23;20424;-44
2023/04/24 11:55:50;;;;;;;3.80;2.23;;;13.60;83.60;;;;;;6088256;23;20489;-45
2023/04/24 11:58:22;;;;;;;3.27;2.63;;;13.60;83.60;;;;;;6087773;23;20392;-45
2023/04/24 12:00:57;;;;;;;2.83;2.13;;;13.60;83.40;;;;;;6087048;23;20691;-45
2023/04/24 12:03:28;;;;;;;5.27;3.17;;;13.60;83.50;;;;;;6087847;23;20380;-45
2023/04/24 12:06:07;;;;;;;5.90;3.03;;;13.60;83.60;;;;;;6086519;23;20446;-44
2023/04/24 12:08:36;;;;;;;3.70;2.60;;;13.50;83.40;;;;;;6087644;23;20431;-45
2023/04/24 12:11:08;;;;;;;3.00;2.60;;;13.60;83.70;;;;;;6087040;23;20490;-43
2023/04/24 12:13:37;;;;;;;3.13;2.40;;;13.60;83.60;;;;;;6087863;23;20420;-45
2023/04/24 12:16:05;;;;;;;3.33;3.03;;;13.60;83.60;;;;;;6087087;23;20440;-46
2023/04/24 12:18:45;;;;;;;3.53;2.50;;;13.50;83.50;;;;;;6087903;23;20443;-46
2023/04/24 12:21:26;;;;;;;3.30;3.00;;;13.50;83.50;;;;;;6087758;23;21008;-45
2023/04/24 12:23:56;;;;;;;3.27;2.53;;;13.60;83.70;;;;;;6089912;23;20380;-46
2023/04/24 12:26:25;;;;;;;3.30;2.50;;;13.60;83.60;;;;;;6088138;23;20912;-46
2023/04/24 12:28:54;;;;;;;3.20;2.30;;;13.60;83.60;;;;;;6085607;23;20396;-45
2023/04/24 12:31:23;;;;;;;4.83;2.87;;;13.60;83.50;;;;;;6087891;23;20396;-45
2023/04/24 12:33:53;;;;;;;5.20;2.77;;;13.60;83.00;;;;;;6088175;23;20726;-46
2023/04/24 12:36:23;;;;;;;3.80;2.03;;;13.60;82.80;;;;;;6087495;23;20447;-45
2023/04/24 12:38:54;;;;;;;5.40;3.07;;;13.60;83.00;;;;;;6088114;23;20887;-44
2023/04/24 12:41:22;;;;;;;4.17;3.00;;;13.60;82.90;;;;;;6112026;23;20386;-45
2023/04/24 12:43:56;;;;;;;5.50;3.20;;;13.60;82.60;;;;;;6087811;23;20575;-46
2023/04/24 12:46:25;;;;;;;4.93;2.80;;;13.50;82.60;;;;;;6089373;23;20742;-45
2023/04/24 12:48:55;;;;;;;4.70;3.33;;;13.60;82.60;;;;;;6089724;23;20529;-44
2023/04/24 12:51:24;;;;;;;5.20;2.90;;;13.50;82.50;;;;;;6086870;23;20368;-46
2023/04/24 12:53:53;;;;;;;4.20;3.20;;;13.60;82.30;;;;;;6089663;23;20452;-46
2023/04/24 12:56:24;;;;;;;3.37;2.63;;;13.50;82.10;;;;;;6087738;23;20422;-45
2023/04/24 12:58:52;;;;;;;4.43;3.53;;;13.50;82.60;;;;;;6086426;23;20412;-44
2023/04/24 13:01:20;;;;;;;5.83;3.03;;;13.50;82.70;;;;;;6087198;23;20383;-45
2023/04/24 13:03:49;;;;;;;5.70;2.70;;;13.50;82.80;;;;;;6087296;23;20467;-46
2023/04/24 13:06:19;;;;;;;8.40;3.77;;;13.50;83.30;;;;;;6088643;23;20427;-45
2023/04/24 13:08:48;;;;;;;6.57;2.93;;;13.50;83.30;;;;;;6087022;23;20396;-46
2023/04/24 13:11:17;;;;;;;4.27;3.10;;;13.50;83.00;;;;;;6088409;23;20836;-45
2023/04/24 13:13:45;;;;;;;4.53;3.23;;;13.50;83.10;;;;;;6086121;23;20430;-44
2023/04/24 13:16:14;;;;;;;3.80;2.67;;;13.50;83.10;;;;;;6087398;23;20757;-45
2023/04/24 13:18:42;;;;;;;3.10;2.80;;;13.50;83.10;;;;;;6088020;23;20962;-45
2023/04/24 13:21:11;;;;;;;5.17;3.50;;;13.50;82.90;;;;;;6086157;23;20518;-45
2023/04/24 13:23:41;;;;;;;4.35;3.40;;;13.50;83.00;;;;;;6086472;23;20401;-45
2023/04/24 13:26:11;;;;;;;8.23;3.93;;;13.50;82.80;;;;;;6086884;23;20212;-45
2023/04/24 13:28:39;;;;;;;6.03;3.50;;;13.50;82.90;;;;;;6087398;23;20408;-46
2023/04/24 13:31:08;;;;;;;4.60;3.10;;;13.50;83.00;;;;;;6086452;23;20481;-45
2023/04/24 13:33:37;;;;;;;3.87;3.20;;;13.50;83.10;;;;;;6088875;23;20388;-45
2023/04/24 13:36:06;;;;;;;5.37;3.43;;;13.50;83.10;;;;;;6086595;23;20819;-46
2023/04/24 13:38:37;;;;;;;4.60;3.07;;;13.50;83.00;;;;;;6086799;23;20392;-45
2023/04/24 13:41:07;;;;;;;3.80;3.10;;;13.50;82.80;;;;;;6086387;23;20431;-45
2023/04/24 13:43:36;;;;;;;4.70;3.00;;;13.50;82.60;;;;;;6085697;23;20780;-45
2023/04/24 13:46:04;;;;;;;4.30;3.40;;;13.50;82.80;;;;;;6086431;22;20468;-46
2023/04/24 13:48:33;;;;;;;4.33;3.63;;;13.50;82.70;;;;;;6087616;23;20454;-45
2023/04/24 13:51:02;;;;;;;4.63;3.20;;;13.40;82.60;;;;;;6086016;23;20431;-45
2023/04/24 13:53:30;;;;;;;5.20;3.47;;;13.40;82.40;;;;;;6087566;23;20396;-46
2023/04/24 13:55:59;;;;;;;4.47;3.30;;;13.50;82.30;;;;;;6086739;23;20755;-45
2023/04/24 13:58:28;;;;;;;7.53;3.87;;;13.50;82.10;;;;;;6086829;23;20921;-45
2023/04/24 14:00:57;;;;;;;3.53;3.00;;;13.50;82.20;;;;;;6086484;23;20439;-46
2023/04/24 14:03:26;;;;;;;4.43;3.17;;;13.50;81.90;;;;;;6086938;23;20410;-45
2023/04/24 14:05:55;;;;;;;4.83;3.43;;;13.50;82.10;;;;;;6085697;23;20451;-45
2023/04/24 14:08:24;;;;;;;3.53;2.73;;;13.50;81.90;;;;;;6086010;23;20434;-48
2023/04/24 14:10:53;;;;;;;7.33;3.60;;;13.40;81.60;;;;;;6086506;23;20436;-46
2023/04/24 14:13:21;;;;;;;3.93;2.90;;;13.50;81.90;;;;;;6085660;23;20974;-46
2023/04/24 14:15:53;;;;;;;6.47;3.00;;;13.50;81.00;;;;;;6085905;23;20475;-45
2023/04/24 14:18:22;;;;;;;7.03;3.17;;;13.50;81.70;;;;;;6087654;23;20416;-45
2023/04/24 14:20:50;;;;;;;2.70;2.50;;;13.50;81.90;;;;;;6086272;23;20443;-45
2023/04/24 14:23:19;;;;;;;4.30;3.10;;;13.50;81.80;;;;;;6087439;23;20396;-45
2023/04/24 14:25:52;;;;;;;5.00;2.90;;;13.50;81.60;;;;;;6087387;23;20436;-46
2023/04/24 14:28:21;;;;;;;3.67;3.03;;;13.50;81.50;;;;;;6088625;23;20364;-46
2023/04/24 14:30:51;;;;;;;3.70;2.87;;;13.50;81.50;;;;;;6086100;23;20445;-45
2023/04/24 14:33:19;;;;;;;2.90;2.40;;;13.50;81.70;;;;;;6087947;23;20380;-44
2023/04/24 14:35:48;;;;;;;3.80;3.00;;;13.50;81.60;;;;;;6084427;23;20480;-44
2023/04/24 14:38:16;;;;;;;5.10;4.00;;;13.50;81.50;;;;;;6087820;23;20368;-44
2023/04/24 14:40:45;;;;;;;5.80;2.90;;;13.50;81.00;;;;;;6086861;23;20440;-44
2023/04/24 14:43:34;;;;;;;4.10;2.73;;;13.50;81.30;;;;;;6087689;23;20862;-43
2023/04/24 14:46:05;;;;;;;4.10;3.20;;;13.50;81.20;;;;;;6088556;23;20443;-46
2023/04/24 14:48:34;;;;;;;4.60;3.20;;;13.50;81.10;;;;;;6087631;23;20434;-44
2023/04/24 14:51:02;;;;;;;5.77;2.80;;;13.50;81.10;;;;;;6087592;23;20439;-43
2023/04/24 14:53:35;;;;;;;5.13;4.17;;;13.50;80.80;;;;;;6087157;23;20392;-46
2023/04/24 14:56:03;;;;;;;7.53;4.82;;;13.50;76.30;;;;;;6085343;23;20416;-44
2023/04/24 14:58:32;;;;;;;5.23;3.73;;;13.40;76.80;;;;;;6086927;23;20407;-46
2023/04/24 15:01:00;;;;;;;5.00;3.10;;;13.40;77.90;;;;;;6086860;23;20435;-43
2023/04/24 15:03:30;;;;;;;4.00;3.10;;;13.40;78.60;;;;;;6088372;23;20412;-44
2023/04/24 15:05:59;;;;;;;4.67;3.73;;;13.40;79.00;;;;;;6088937;23;20948;-44
2023/04/24 15:08:28;;;;;;;5.50;3.90;;;13.50;78.60;;;;;;6087726;23;20400;-43
2023/04/24 15:10:56;;;;;;;4.20;3.57;;;13.50;79.10;;;;;;6087016;23;20451;-46
2023/04/24 15:13:25;;;;;;;4.47;3.50;;;13.50;78.60;;;;;;6086455;23;20380;-45
2023/04/24 15:15:54;;;;;;;6.50;3.80;;;13.50;79.00;;;;;;6086293;23;20444;-45
2023/04/24 15:18:22;;;;;;;4.80;3.40;;;13.50;79.30;;;;;;6088319;23;20461;-46
2023/04/24 15:20:52;;;;;;;5.83;4.20;;;13.50;79.20;;;;;;6087458;23;20938;-45
2023/04/24 15:23:20;;;;;;;5.77;2.80;;;13.50;79.20;;;;;;6088181;23;20384;-44
2023/04/24 15:25:49;;;;;;;3.53;2.70;;;13.50;79.40;;;;;;6085986;23;20524;-45
2023/04/24 15:28:18;;;;;;;4.43;3.10;;;13.50;79.60;;;;;;6088071;23;20399;-45
2023/04/24 15:30:48;;;;;;;4.13;3.53;;;13.50;79.10;;;;;;6083432;23;20454;-44
2023/04/24 15:33:21;;;;;;;4.60;3.20;;;13.50;79.00;;;;;;6084260;23;20486;-45
2023/04/24 15:35:50;;;;;;;3.70;2.90;;;13.50;79.20;;;;;;6084624;23;20531;-45
2023/04/24 15:38:19;;;;;;;4.53;3.47;;;13.50;79.50;;;;;;6087819;23;20384;-45
2023/04/24 15:40:49;;;;;;;4.97;3.40;;;13.50;79.00;;;;;;6085907;23;20828;-46
2023/04/24 15:43:17;;;;;;;4.57;3.40;;;13.50;79.00;;;;;;6084764;23;20441;-45
2023/04/24 15:45:45;;;;;;;5.10;3.23;;;13.50;79.00;;;;;;6084498;23;20527;-43
2023/04/24 15:48:14;;;;;;;5.13;2.97;;;13.50;79.00;;;;;;6085364;23;20883;-45
2023/04/24 15:50:43;;;;;;;5.50;3.10;;;13.50;78.30;;;;;;6087929;23;20439;-44
2023/04/24 15:53:11;;;;;;;5.00;3.20;;;13.50;79.40;;;;;;6087539;23;20436;-45
2023/04/24 15:55:41;;;;;;;4.10;2.60;;;13.50;79.10;;;;;;6086334;23;20539;-45
2023/04/24 15:58:09;;;;;;;4.40;3.70;;;13.50;78.90;;;;;;6086402;23;20733;-45
2023/04/24 16:00:38;;;;;;;3.60;3.20;;;13.50;78.70;;;;;;6110281;23;20450;-45
2023/04/24 16:03:06;;;;;;;4.23;3.53;;;13.50;79.00;;;;;;6088109;23;20446;-45
2023/04/24 16:05:37;;;;;;;4.80;3.30;;;13.50;79.40;;;;;;6085737;23;20509;-44
2023/04/24 16:08:06;;;;;;;5.70;4.20;;;13.50;80.00;;;;;;6088787;23;20713;-44
2023/04/24 16:10:35;;;;;;;8.47;4.10;;;13.40;75.30;;;;;;6062107;23;20440;-43
2023/04/24 16:13:05;;;;;;;4.60;3.70;;;13.30;74.60;;;;;;6087816;23;20404;-44
2023/04/24 16:15:35;;;;;;;4.50;3.50;;;13.30;76.30;;;;;;6086599;23;20866;-44
2023/04/24 16:18:04;;;;;;;3.60;3.30;;;13.30;77.00;;;;;;6088351;23;20385;-45
2023/04/24 16:20:32;;;;;;;4.00;3.60;;;13.40;77.70;;;;;;6087961;23;20444;-45
2023/04/24 16:23:01;;;;;;;4.80;3.30;;;13.40;78.00;;;;;;6087919;23;20405;-45
2023/04/24 16:25:30;;;;;;;3.80;3.40;;;13.40;78.30;;;;;;6087646;23;20482;-44
2023/04/24 16:27:59;;;;;;;8.23;3.57;;;13.40;78.40;;;;;;6086693;23;20855;-45
2023/04/24 16:30:30;;;;;;;6.40;3.67;;;13.40;78.50;;;;;;6088183;23;20930;-44
2023/04/24 16:32:58;;;;;;;5.23;3.50;;;13.40;80.00;;;;;;6112149;23;20373;-45
2023/04/24 16:35:27;;;;;;;4.73;3.30;;;13.40;78.90;;;;;;6084928;23;20471;-45
2023/04/24 16:37:55;;;;;;;5.00;3.50;;;13.40;78.60;;;;;;6087085;23;20381;-44
2023/04/24 16:40:24;;;;;;;4.87;3.43;;;13.50;78.30;;;;;;6086445;23;20938;-45
2023/04/24 16:42:53;;;;;;;7.90;3.90;;;13.50;78.90;;;;;;6088869;23;20419;-44
2023/04/24 16:45:22;;;;;;;4.60;3.17;;;13.50;78.80;;;;;;6087423;23;20451;-44
2023/04/24 16:47:52;;;;;;;6.73;3.40;;;13.40;78.90;;;;;;6090142;23;20396;-44
2023/04/24 16:50:21;;;;;;;5.70;3.10;;;13.50;78.80;;;;;;6086188;23;20432;-44
2023/04/24 16:52:49;;;;;;;5.50;3.17;;;13.50;79.00;;;;;;6087849;23;20412;-45
2023/04/24 16:55:18;;;;;;;5.13;3.60;;;13.40;78.80;;;;;;6214093;22;20476;-44
2023/04/24 16:57:47;;;;;;;5.17;3.87;;;13.40;79.10;;;;;;6088001;23;20757;-45
2023/04/24 17:00:16;;;;;;;3.80;2.80;;;13.50;79.00;;;;;;6086946;23;20573;-44
2023/04/24 17:02:47;;;;;;;8.17;3.50;;;13.50;78.40;;;;;;6086813;23;20728;-44
2023/04/24 17:05:20;;;;;;;5.63;3.27;;;13.50;78.80;;;;;;6086351;23;20450;-45
2023/04/24 17:07:48;;;;;;;7.30;3.20;;;13.40;78.70;;;;;;6087183;23;20369;-45
2023/04/24 17:10:17;;;;;;;4.00;2.90;;;13.40;79.00;;;;;;6087895;23;20436;-42
2023/04/24 17:12:45;;;;;;;4.00;3.03;;;13.40;79.20;;;;;;6085657;23;20638;-45
2023/04/24 17:15:14;;;;;;;4.60;3.33;;;13.40;78.90;;;;;;6087093;23;20518;-45
2023/04/24 17:17:44;;;;;;;4.27;3.20;;;13.50;78.80;;;;;;6087373;23;20419;-44
2023/04/24 17:20:13;;;;;;;7.37;3.23;;;13.50;79.20;;;;;;6086558;23;20485;-44
2023/04/24 17:22:52;;;;;;;3.53;2.80;;;13.40;79.40;;;;;;6086730;23;20388;-45
2023/04/24 17:25:22;;;;;;;4.90;3.97;;;13.40;79.60;;;;;;6088176;23;20440;-44
2023/04/24 17:27:50;;;;;;;4.40;3.47;;;13.50;79.50;;;;;;6086265;23;20446;-46
2023/04/24 17:30:19;;;;;;;5.47;3.27;;;13.50;79.70;;;;;;6087211;23;20990;-45
2023/04/24 17:32:47;;;;;;;4.70;3.03;;;13.50;79.50;;;;;;6087159;23;20459;-45
2023/04/24 17:35:16;;;;;;;3.47;2.83;;;13.40;79.30;;;;;;6086540;23;20439;-45
2023/04/24 17:37:45;;;;;;;4.97;2.80;;;13.50;79.70;;;;;;6088238;23;20424;-45
2023/04/24 17:40:15;;;;;;;4.20;3.43;;;13.40;79.50;;;;;;6085615;23;20973;-45
2023/04/24 17:42:43;;;;;;;3.97;2.77;;;13.50;79.20;;;;;;6085782;23;20913;-44
2023/04/24 17:45:12;;;;;;;2.93;2.57;;;13.50;79.80;;;;;;6086176;23;20443;-45
2023/04/24 17:47:41;;;;;;;3.63;2.73;;;13.40;79.80;;;;;;6087132;23;20396;-44
2023/04/24 17:50:10;;;;;;;3.70;3.13;;;13.40;80.00;;;;;;6086655;23;20380;-45
2023/04/24 17:52:39;;;;;;;2.83;2.53;;;13.40;79.90;;;;;;6086605;23;20487;-44
2023/04/24 17:55:09;;;;;;;4.20;3.03;;;13.50;80.00;;;;;;6087533;23;20439;-44
2023/04/24 17:57:39;;;;;;;3.20;2.90;;;13.50;80.10;;;;;;6086517;23;20416;-45
2023/04/24 18:00:08;;;;;;;3.30;2.97;;;13.40;79.80;;;;;;6087255;23;20385;-45
2023/04/24 18:02:37;;;;;;;5.30;3.00;;;13.50;80.10;;;;;;6087191;23;20400;-46
2023/04/24 18:05:06;;;;;;;3.80;3.07;;;13.50;80.20;;;;;;6089072;23;20514;-44
2023/04/24 18:07:35;;;;;;;4.27;2.83;;;13.40;80.10;;;;;;6087141;23;20442;-43
2023/04/24 18:10:03;;;;;;;4.90;3.00;;;13.40;80.10;;;;;;6111067;23;20432;-45
2023/04/24 18:12:32;;;;;;;5.37;3.17;;;13.40;80.10;;;;;;6086457;23;20901;-42
2023/04/24 18:15:04;;;;;;;3.70;2.50;;;13.40;79.90;;;;;;6087842;23;20408;-45